Time;durP1;ratioP1;P1;durP2;ratioP2;P2;SDS_P1;SDS_P2;PMS_P1;PMS_P2;Temp;Humidity;BMP_temperature;BMP_pressure;BME280_temperature;BME280_humidity;BME280_pressure;Samples;Min_cycle;Max_cycle;Signal;HPM_P1;HPM_P2
2022/12/01 00:01:05;;;;;;;;;54.00;42.75;;;;;-146.44;100.00;58906.56;5016802;28;46202;-53
2022/12/01 00:03:32;;;;;;;;;41.50;36.50;;;;;-146.44;100.00;58906.56;5016656;28;46025;-54
2022/12/01 00:06:05;;;;;;;;;46.75;38.00;;;;;-146.44;100.00;58906.56;5014787;28;45501;-56
2022/12/01 00:08:32;;;;;;;;;46.25;40.00;;;;;-146.44;100.00;58906.56;5016664;28;45482;-53
2022/12/01 00:11:06;;;;;;;;;46.25;40.00;;;;;-146.44;100.00;58906.56;5016625;28;45756;-56
2022/12/01 00:13:33;;;;;;;;;38.75;36.50;;;;;-146.44;100.00;58906.56;5016491;28;45528;-54
2022/12/01 00:16:14;;;;;;;;;45.25;38.00;;;;;-146.44;100.00;58906.56;5016521;28;45508;-56
2022/12/01 00:18:40;;;;;;;;;47.25;40.00;;;;;-146.44;100.00;58906.56;5016577;28;45503;-55
2022/12/01 00:21:13;;;;;;;;;43.75;37.25;;;;;-146.44;100.00;58906.56;5016229;28;45537;-54
2022/12/01 00:23:42;;;;;;;;;39.75;31.00;;;;;-146.44;100.00;58906.56;5016365;28;46174;-56
2022/12/01 00:26:07;;;;;;;;;53.50;43.00;;;;;-146.44;100.00;58906.56;5016227;28;45421;-55
2022/12/01 00:28:32;;;;;;;;;44.25;37.25;;;;;-146.44;100.00;58906.56;5016949;28;45570;-53
2022/12/01 00:30:58;;;;;;;;;41.25;37.75;;;;;-146.44;100.00;58906.56;5015761;28;52222;-52
2022/12/01 00:33:24;;;;;;;;;47.50;38.25;;;;;-146.44;100.00;58906.56;5016326;28;46033;-57
2022/12/01 00:35:49;;;;;;;;;42.75;36.75;;;;;-146.44;100.00;58906.56;5016342;28;45442;-53
2022/12/01 00:38:14;;;;;;;;;45.25;38.75;;;;;-146.44;100.00;58906.56;5016519;28;45485;-54
2022/12/01 00:40:40;;;;;;;;;49.00;37.25;;;;;-146.44;100.00;58906.56;5016307;28;45493;-56
2022/12/01 00:43:05;;;;;;;;;48.00;41.00;;;;;-146.44;100.00;58906.56;5016032;28;45962;-53
2022/12/01 00:45:30;;;;;;;;;47.25;38.75;;;;;-146.44;100.00;58906.56;5015955;28;46231;-56
2022/12/01 00:47:56;;;;;;;;;50.00;40.75;;;;;-146.44;100.00;58906.56;5015934;28;47259;-55
2022/12/01 00:50:21;;;;;;;;;47.00;38.50;;;;;-146.44;100.00;58906.56;5015420;28;51821;-54
2022/12/01 00:52:46;;;;;;;;;41.50;35.00;;;;;-146.44;100.00;58906.56;5014739;28;45609;-55
2022/12/01 00:55:11;;;;;;;;;51.25;41.00;;;;;-146.44;100.00;58906.56;5016331;28;45443;-51
2022/12/01 00:57:37;;;;;;;;;47.75;37.75;;;;;-146.44;100.00;58906.56;5016224;28;45479;-52
2022/12/01 01:00:04;;;;;;;;;49.25;41.00;;;;;-146.44;100.00;58906.56;5015891;28;45533;-56
2022/12/01 01:02:30;;;;;;;;;45.00;39.25;;;;;-146.44;100.00;58906.56;5015826;28;45532;-54
2022/12/01 01:04:55;;;;;;;;;47.75;37.75;;;;;-146.44;100.00;58906.56;5015678;28;45578;-57
2022/12/01 01:07:20;;;;;;;;;43.75;39.00;;;;;-146.44;100.00;58906.56;5015829;28;45441;-56
2022/12/01 01:09:46;;;;;;;;;39.25;34.75;;;;;-146.44;100.00;58906.56;5015861;28;45702;-55
2022/12/01 01:12:11;;;;;;;;;44.25;36.75;;;;;-146.44;100.00;58906.56;5014860;28;46199;-55
2022/12/01 01:14:36;;;;;;;;;48.75;37.50;;;;;-146.44;100.00;58906.56;5015850;28;45504;-52
2022/12/01 01:17:02;;;;;;;;;50.50;37.75;;;;;-146.44;100.00;58906.56;5015751;28;45502;-55
2022/12/01 01:19:27;;;;;;;;;46.75;38.75;;;;;-146.44;100.00;58906.56;5015668;28;45606;-55
2022/12/01 01:21:52;;;;;;;;;50.25;39.75;;;;;-146.44;100.00;58906.56;5015267;28;45495;-55
2022/12/01 01:24:18;;;;;;;;;45.50;38.25;;;;;-146.44;100.00;58906.56;5015083;28;45483;-50
2022/12/01 01:26:43;;;;;;;;;44.25;37.75;;;;;-146.44;100.00;58906.56;5015988;28;45500;-55
2022/12/01 01:29:08;;;;;;;;;43.50;37.50;;;;;-146.44;100.00;58906.56;5016144;28;45732;-54
2022/12/01 01:31:35;;;;;;;;;45.50;37.50;;;;;-146.44;100.00;58906.56;5015196;28;45453;-52
2022/12/01 01:34:00;;;;;;;;;42.25;37.75;;;;;-146.44;100.00;58906.56;5014984;28;45473;-57
2022/12/01 01:36:26;;;;;;;;;42.50;36.25;;;;;-146.44;100.00;58906.56;5015328;28;45481;-53
2022/12/01 01:38:53;;;;;;;;;47.25;40.25;;;;;-146.44;100.00;58906.56;5015447;28;45636;-52
2022/12/01 01:41:19;;;;;;;;;37.50;31.75;;;;;-146.44;100.00;58906.56;5014993;28;45732;-52
2022/12/01 01:43:51;;;;;;;;;43.25;38.00;;;;;-146.44;100.00;58906.56;5015038;28;45545;-54
2022/12/01 01:46:23;;;;;;;;;43.00;38.25;;;;;-146.44;100.00;58906.56;5015312;28;45623;-53
2022/12/01 01:48:56;;;;;;;;;47.00;35.00;;;;;-146.44;100.00;58906.56;5015199;28;45513;-50
2022/12/01 01:51:39;;;;;;;;;45.50;40.50;;;;;-146.44;100.00;58906.56;5014969;28;45576;-55
2022/12/01 01:54:14;;;;;;;;;49.00;36.25;;;;;-146.44;100.00;58906.56;5014857;28;45532;-54
2022/12/01 01:56:41;;;;;;;;;45.75;39.00;;;;;-146.44;100.00;58906.56;5014924;28;45467;-51
2022/12/01 01:59:07;;;;;;;;;49.00;40.75;;;;;-146.44;100.00;58906.56;5014964;28;45430;-53
2022/12/01 02:01:32;;;;;;;;;42.00;38.75;;;;;-146.44;100.00;58906.56;5014801;28;46287;-54
2022/12/01 02:03:58;;;;;;;;;38.25;35.50;;;;;-146.44;100.00;58906.56;5014536;28;45510;-55
2022/12/01 02:06:23;;;;;;;;;47.50;38.00;;;;;-146.44;100.00;58906.56;5015263;28;45552;-54
2022/12/01 02:08:49;;;;;;;;;45.00;38.00;;;;;-146.44;100.00;58906.56;5014887;28;45665;-57
2022/12/01 02:11:35;;;;;;;;;45.75;37.25;;;;;-146.44;100.00;58906.56;5030235;28;45498;-51
2022/12/01 02:14:19;;;;;;;;;36.50;35.25;;;;;-146.44;100.00;58906.56;5014899;28;45556;-54
2022/12/01 02:16:52;;;;;;;;;42.25;35.25;;;;;-146.44;100.00;58906.56;5014808;28;45513;-54
2022/12/01 02:19:49;;;;;;;;;47.75;40.50;;;;;-146.44;100.00;58906.56;5014827;28;45802;-54
2022/12/01 02:22:36;;;;;;;;;48.00;39.00;;;;;-146.44;100.00;58906.56;4994775;28;45596;-57
2022/12/01 02:25:19;;;;;;;;;39.75;34.25;;;;;-146.44;100.00;58906.56;5014324;28;45352;-53
2022/12/01 02:28:12;;;;;;;;;38.00;35.00;;;;;-146.44;100.00;58906.56;5015237;28;45600;-55
2022/12/01 02:30:47;;;;;;;;;41.75;35.25;;;;;-146.44;100.00;58906.56;5014656;28;45634;-54
2022/12/01 02:33:34;;;;;;;;;41.25;32.25;;;;;-146.44;100.00;58906.56;5014421;28;46109;-55
2022/12/01 02:36:32;;;;;;;;;40.25;36.00;;;;;-146.44;100.00;58906.56;5014309;28;45500;-56
2022/12/01 02:39:37;;;;;;;;;44.50;35.75;;;;;-146.44;100.00;58906.56;5013565;28;45513;-54
2022/12/01 02:42:48;;;;;;;;;41.00;35.75;;;;;-146.44;100.00;58906.56;4997455;28;45510;-54
2022/12/01 02:45:12;;;;;;;;;43.50;37.25;;;;;-146.44;100.00;58906.56;5011592;28;45997;-54
2022/12/01 02:47:40;;;;;;;;;41.50;37.00;;;;;-146.44;100.00;58906.56;5014203;28;45535;-53
2022/12/01 02:50:08;;;;;;;;;41.00;35.50;;;;;-146.44;100.00;58906.56;5013861;28;45541;-55
2022/12/01 02:52:35;;;;;;;;;40.25;36.25;;;;;-146.44;100.00;58906.56;5014126;28;45476;-53
2022/12/01 02:55:00;;;;;;;;;41.25;36.75;;;;;-146.44;100.00;58906.56;5013831;28;45514;-55
2022/12/01 02:57:29;;;;;;;;;31.75;30.50;;;;;-146.44;100.00;58906.56;5013669;28;54250;-53
2022/12/01 02:59:55;;;;;;;;;36.50;33.75;;;;;-146.44;100.00;58906.56;5014234;28;45461;-54
2022/12/01 03:02:41;;;;;;;;;36.50;32.25;;;;;-146.44;100.00;58906.56;5013826;28;45510;-56
2022/12/01 03:05:39;;;;;;;;;47.25;36.75;;;;;-146.44;100.00;58906.56;5014120;28;45436;-53
2022/12/01 03:08:45;;;;;;;;;40.25;36.00;;;;;-146.44;100.00;58906.56;5012635;28;45562;-56
2022/12/01 03:11:25;;;;;;;;;41.75;35.25;;;;;-146.44;100.00;58906.56;4991414;28;45555;-52
2022/12/01 03:14:28;;;;;;;;;38.75;33.75;;;;;-146.44;100.00;58906.56;5011475;28;45550;-50
2022/12/01 03:16:54;;;;;;;;;44.50;35.00;;;;;-146.44;100.00;58906.56;5009864;28;47346;-56
2022/12/01 03:19:43;;;;;;;;;46.50;38.00;;;;;-146.44;100.00;58906.56;5017218;28;45582;-52
2022/12/01 03:22:35;;;;;;;;;39.25;34.50;;;;;-146.44;100.00;58906.56;5017402;28;45558;-55
2022/12/01 03:25:02;;;;;;;;;42.75;37.25;;;;;-146.44;100.00;58906.56;5015766;28;45513;-53
2022/12/01 03:27:32;;;;;;;;;39.50;35.00;;;;;-146.44;100.00;58906.56;5017870;28;45517;-52
2022/12/01 03:30:00;;;;;;;;;40.50;35.00;;;;;-146.44;100.00;58906.56;5017138;28;45506;-57
2022/12/01 03:32:34;;;;;;;;;40.25;36.25;;;;;-146.44;100.00;58906.56;5017304;28;45528;-55
2022/12/01 03:35:03;;;;;;;;;44.50;37.25;;;;;-146.44;100.00;58906.56;5017264;28;45493;-56
2022/12/01 03:37:35;;;;;;;;;47.50;39.00;;;;;-146.44;100.00;58906.56;5017269;28;46402;-55
2022/12/01 03:40:05;;;;;;;;;38.75;34.50;;;;;-146.44;100.00;58906.56;5017021;28;45526;-56
2022/12/01 03:42:36;;;;;;;;;48.25;38.25;;;;;-146.44;100.00;58906.56;5007796;28;45508;-52
2022/12/01 03:45:13;;;;;;;;;44.50;38.25;;;;;-146.44;100.00;58906.56;5015746;28;45463;-53
2022/12/01 03:47:39;;;;;;;;;45.25;37.25;;;;;-146.44;100.00;58906.56;5015720;28;46672;-54
2022/12/01 03:50:12;;;;;;;;;43.75;37.25;;;;;-146.44;100.00;58906.56;5016738;28;45522;-57
2022/12/01 03:52:59;;;;;;;;;46.75;35.50;;;;;-146.44;100.00;58906.56;5016479;28;45590;-57
2022/12/01 03:55:30;;;;;;;;;49.00;38.00;;;;;-146.44;100.00;58906.56;5016836;28;45627;-54
2022/12/01 03:58:01;;;;;;;;;40.75;36.25;;;;;-146.44;100.00;58906.56;5016666;28;45453;-55
2022/12/01 04:00:28;;;;;;;;;44.75;38.50;;;;;-146.44;100.00;58906.56;5016609;28;45552;-54
2022/12/01 04:02:58;;;;;;;;;53.25;39.50;;;;;-146.44;100.00;58906.56;5016826;28;45522;-51
2022/12/01 04:05:25;;;;;;;;;49.25;39.00;;;;;-146.44;100.00;58906.56;5016377;28;45486;-50
2022/12/01 04:07:51;;;;;;;;;49.50;40.75;;;;;-146.44;100.00;58906.56;5016456;28;45527;-49
2022/12/01 04:10:16;;;;;;;;;49.50;39.25;;;;;-146.44;100.00;58906.56;5016416;28;45473;-52
2022/12/01 04:12:42;;;;;;;;;40.50;36.25;;;;;-146.44;100.00;58906.56;5016626;28;45844;-51
2022/12/01 04:15:11;;;;;;;;;47.75;40.00;;;;;-146.44;100.00;58906.56;5016856;28;45514;-53
2022/12/01 04:17:43;;;;;;;;;48.25;37.00;;;;;-146.44;100.00;58906.56;5016310;28;45504;-53
2022/12/01 04:20:10;;;;;;;;;54.00;41.00;;;;;-146.44;100.00;58906.56;5031495;28;45535;-52
2022/12/01 04:22:36;;;;;;;;;43.00;35.00;;;;;-146.44;100.00;58906.56;5016463;28;45403;-57
2022/12/01 04:25:03;;;;;;;;;47.75;39.00;;;;;-146.44;100.00;58906.56;5016305;28;45681;-54
2022/12/01 04:27:29;;;;;;;;;40.50;35.75;;;;;-146.44;100.00;58906.56;5017109;28;46091;-54
2022/12/01 04:29:54;;;;;;;;;47.75;39.00;;;;;-146.44;100.00;58906.56;5031628;28;45453;-51
2022/12/01 04:32:19;;;;;;;;;42.75;37.50;;;;;-146.44;100.00;58906.56;5016761;28;45505;-51
2022/12/01 04:34:45;;;;;;;;;52.50;41.75;;;;;-146.44;100.00;58906.56;5016226;28;45672;-52
2022/12/01 04:37:10;;;;;;;;;51.75;41.25;;;;;-146.44;100.00;58906.56;5016170;28;45550;-53
2022/12/01 04:39:36;;;;;;;;;44.00;37.25;;;;;-146.44;100.00;58906.56;5016285;28;45501;-56
2022/12/01 04:42:02;;;;;;;;;50.00;41.75;;;;;-146.44;100.00;58906.56;5016352;28;45469;-53
2022/12/01 04:44:27;;;;;;;;;44.50;35.75;;;;;-146.44;100.00;58906.56;5016422;28;45466;-52
2022/12/01 04:46:53;;;;;;;;;34.75;33.50;;;;;-146.44;100.00;58906.56;5016001;28;45561;-51
2022/12/01 04:49:19;;;;;;;;;54.50;40.75;;;;;-146.44;100.00;58906.56;5016235;28;45549;-52
2022/12/01 04:51:45;;;;;;;;;39.50;33.75;;;;;-146.44;100.00;58906.56;5016092;28;45552;-56
2022/12/01 04:54:10;;;;;;;;;40.25;36.00;;;;;-146.44;100.00;58906.56;5015896;28;45559;-53
2022/12/01 04:56:35;;;;;;;;;39.25;34.75;;;;;-146.44;100.00;58906.56;5014613;28;45645;-55
2022/12/01 04:59:01;;;;;;;;;47.75;38.00;;;;;-146.44;100.00;58906.56;5015620;28;45860;-56
2022/12/01 05:01:27;;;;;;;;;40.50;35.00;;;;;-146.44;100.00;58906.56;5016015;28;45501;-52
2022/12/01 05:03:52;;;;;;;;;41.25;34.25;;;;;-146.44;100.00;58906.56;5016003;28;46225;-54
2022/12/01 05:06:23;;;;;;;;;39.25;30.75;;;;;-146.44;100.00;58906.56;5015684;28;47050;-54
2022/12/01 05:08:50;;;;;;;;;36.75;33.25;;;;;-146.44;100.00;58906.56;5015843;28;45553;-56
2022/12/01 05:11:16;;;;;;;;;41.75;37.00;;;;;-146.44;100.00;58906.56;5014434;28;45462;-53
2022/12/01 05:13:44;;;;;;;;;41.75;36.50;;;;;-146.44;100.00;58906.56;5015661;28;45469;-52
2022/12/01 05:16:12;;;;;;;;;44.00;38.00;;;;;-146.44;100.00;58906.56;5015423;28;46254;-51
2022/12/01 05:18:38;;;;;;;;;39.00;36.00;;;;;-146.44;100.00;58906.56;5015420;28;45474;-55
2022/12/01 05:21:05;;;;;;;;;48.25;40.75;;;;;-146.44;100.00;58906.56;5014385;28;45522;-57
2022/12/01 05:23:32;;;;;;;;;47.50;38.25;;;;;-146.44;100.00;58906.56;5015644;28;45572;-54
2022/12/01 05:25:59;;;;;;;;;37.50;35.50;;;;;-146.44;100.00;58906.56;5014069;28;45498;-49
2022/12/01 05:28:25;;;;;;;;;42.75;36.75;;;;;-146.44;100.00;58906.56;5014527;28;45562;-54
2022/12/01 05:30:53;;;;;;;;;38.00;33.25;;;;;-146.44;100.00;58906.56;5014198;28;45493;-57
2022/12/01 05:33:19;;;;;;;;;41.25;37.50;;;;;-146.44;100.00;58906.56;5014093;28;45531;-54
2022/12/01 05:35:44;;;;;;;;;45.50;38.25;;;;;-146.44;100.00;58906.56;5012742;28;46476;-54
2022/12/01 05:38:09;;;;;;;;;41.25;38.25;;;;;-146.44;100.00;58906.56;5013142;28;45481;-57
2022/12/01 05:40:36;;;;;;;;;52.50;42.25;;;;;-146.44;100.00;58906.56;5014171;28;45414;-56
2022/12/01 05:43:01;;;;;;;;;41.25;32.75;;;;;-146.44;100.00;58906.56;5013756;28;45474;-52
2022/12/01 05:45:27;;;;;;;;;43.25;35.25;;;;;-146.44;100.00;58906.56;5013625;28;45498;-55
2022/12/01 05:47:57;;;;;;;;;44.75;38.00;;;;;-146.44;100.00;58906.56;5013774;28;45439;-54
2022/12/01 05:50:24;;;;;;;;;46.00;39.75;;;;;-146.44;100.00;58906.56;5013927;28;45510;-55
2022/12/01 05:52:49;;;;;;;;;41.25;35.00;;;;;-146.44;100.00;58906.56;5013778;28;45517;-56
2022/12/01 05:55:15;;;;;;;;;51.50;41.25;;;;;-146.44;100.00;58906.56;5013411;28;46074;-53
2022/12/01 05:57:40;;;;;;;;;42.50;36.50;;;;;-146.44;100.00;58906.56;5013518;28;45537;-55
2022/12/01 06:00:07;;;;;;;;;40.25;35.25;;;;;-146.44;100.00;58906.56;5013479;28;45446;-55
2022/12/01 06:02:32;;;;;;;;;48.25;38.00;;;;;-146.44;100.00;58906.56;5013639;28;45379;-56
2022/12/01 06:04:58;;;;;;;;;42.75;37.25;;;;;-146.44;100.00;58906.56;5013182;28;46087;-54
2022/12/01 06:07:24;;;;;;;;;45.00;39.50;;;;;-146.44;100.00;58906.56;5013365;28;45445;-55
2022/12/01 06:09:51;;;;;;;;;37.00;35.25;;;;;-146.44;100.00;58906.56;5013686;28;45505;-56
2022/12/01 06:12:16;;;;;;;;;36.25;31.25;;;;;-146.44;100.00;58906.56;5013219;28;45580;-55
2022/12/01 06:14:41;;;;;;;;;45.25;41.00;;;;;-146.44;100.00;58906.56;5013248;28;45409;-57
2022/12/01 06:17:07;;;;;;;;;44.25;36.25;;;;;-146.44;100.00;58906.56;5012960;28;54733;-55
2022/12/01 06:19:32;;;;;;;;;41.00;33.50;;;;;-146.44;100.00;58906.56;5013394;28;45510;-54
2022/12/01 06:21:57;;;;;;;;;41.75;37.75;;;;;-146.44;100.00;58906.56;5013296;28;45457;-53
2022/12/01 06:24:23;;;;;;;;;45.33;37.33;;;;;-146.44;100.00;58906.56;4974154;28;1106063;-52
2022/12/01 06:26:48;;;;;;;;;51.00;42.50;;;;;-146.44;100.00;58906.56;5014684;28;45485;-53
2022/12/01 06:29:14;;;;;;;;;44.25;37.50;;;;;-146.44;100.00;58906.56;5015227;28;45457;-53
2022/12/01 06:31:39;;;;;;;;;41.25;38.25;;;;;-146.44;100.00;58906.56;5010970;28;45852;-52
2022/12/01 06:34:05;;;;;;;;;43.25;36.00;;;;;-146.44;100.00;58906.56;5014452;28;46108;-52
2022/12/01 06:36:31;;;;;;;;;42.50;37.75;;;;;-146.44;100.00;58906.56;5014378;28;45454;-55
2022/12/01 06:38:56;;;;;;;;;47.25;37.75;;;;;-146.44;100.00;58906.56;5014572;28;45511;-52
2022/12/01 06:41:21;;;;;;;;;42.75;36.00;;;;;-146.44;100.00;58906.56;5006427;28;49866;-52
2022/12/01 06:43:47;;;;;;;;;43.25;36.75;;;;;-146.44;100.00;58906.56;5014077;28;46776;-55
2022/12/01 06:46:12;;;;;;;;;40.25;33.75;;;;;-146.44;100.00;58906.56;5013920;28;45609;-55
2022/12/01 06:48:38;;;;;;;;;43.00;36.75;;;;;-146.44;100.00;58906.56;5013620;28;45466;-55
2022/12/01 06:51:03;;;;;;;;;48.75;38.00;;;;;-146.44;100.00;58906.56;5013854;28;45457;-54
2022/12/01 06:53:29;;;;;;;;;43.50;38.50;;;;;-146.44;100.00;58906.56;5014089;28;45990;-55
2022/12/01 06:56:03;;;;;;;;;37.00;33.50;;;;;-146.44;100.00;58906.56;5014399;28;45461;-57
2022/12/01 06:58:28;;;;;;;;;42.75;36.75;;;;;-146.44;100.00;58906.56;5017668;28;45542;-55
2022/12/01 07:00:54;;;;;;;;;41.75;35.00;;;;;-146.44;100.00;58906.56;5013834;28;45477;-58
2022/12/01 07:03:19;;;;;;;;;34.50;34.00;;;;;-146.44;100.00;58906.56;5019153;28;46505;-54
2022/12/01 07:05:54;;;;;;;;;40.00;34.75;;;;;-146.44;100.00;58906.56;5021652;28;45584;-55
2022/12/01 07:08:20;;;;;;;;;38.75;32.00;;;;;-146.44;100.00;58906.56;5014287;28;45374;-54
2022/12/01 07:10:45;;;;;;;;;39.25;36.50;;;;;-146.44;100.00;58906.56;5013939;28;45439;-52
2022/12/01 07:13:10;;;;;;;;;40.50;35.00;;;;;-146.44;100.00;58906.56;5019285;28;45574;-55
2022/12/01 07:15:37;;;;;;;;;40.00;35.50;;;;;-146.44;100.00;58906.56;5019619;28;45486;-54
2022/12/01 07:18:02;;;;;;;;;41.75;38.25;;;;;-146.44;100.00;58906.56;5016142;28;45544;-56
2022/12/01 07:20:28;;;;;;;;;41.25;35.25;;;;;-146.44;100.00;58906.56;5021269;28;45541;-51
2022/12/01 07:22:53;;;;;;;;;39.25;34.75;;;;;-146.44;100.00;58906.56;5012997;28;52162;-49
2022/12/01 07:25:18;;;;;;;;;34.00;33.00;;;;;-146.44;100.00;58906.56;5014556;28;53774;-50
2022/12/01 07:27:43;;;;;;;;;41.50;35.00;;;;;-146.44;100.00;58906.56;5013817;28;46044;-48
2022/12/01 07:30:09;;;;;;;;;38.75;36.25;;;;;-146.44;100.00;58906.56;5019163;28;45557;-49
2022/12/01 07:32:35;;;;;;;;;44.25;35.50;;;;;-146.44;100.00;58906.56;5023624;28;45418;-51
2022/12/01 07:35:01;;;;;;;;;40.50;32.75;;;;;-146.44;100.00;58906.56;5013976;28;45520;-51
2022/12/01 07:37:26;;;;;;;;;44.00;37.50;;;;;-146.44;100.00;58906.56;5013430;28;45477;-51
2022/12/01 07:39:51;;;;;;;;;45.25;37.25;;;;;-146.44;100.00;58906.56;5012885;28;45435;-48
2022/12/01 07:42:16;;;;;;;;;39.50;35.00;;;;;-146.44;100.00;58906.56;5012918;28;46170;-48
2022/12/01 07:44:42;;;;;;;;;39.50;35.75;;;;;-146.44;100.00;58906.56;5012565;28;56317;-48
2022/12/01 07:47:07;;;;;;;;;40.50;35.00;;;;;-146.44;100.00;58906.56;5028536;28;45553;-50
2022/12/01 07:49:33;;;;;;;;;51.75;41.00;;;;;-146.44;100.00;58906.56;5012812;28;46552;-50
2022/12/01 07:51:58;;;;;;;;;42.50;37.00;;;;;-146.44;100.00;58906.56;5012304;28;46105;-52
2022/12/01 07:54:24;;;;;;;;;40.25;36.50;;;;;-146.44;100.00;58906.56;5028124;28;45476;-51
2022/12/01 07:56:49;;;;;;;;;36.50;35.00;;;;;-146.44;100.00;58906.56;5028289;28;45489;-49
2022/12/01 07:59:15;;;;;;;;;36.00;32.75;;;;;-146.44;100.00;58906.56;5012561;28;45454;-48
2022/12/01 08:01:40;;;;;;;;;39.75;36.50;;;;;-146.44;100.00;58906.56;5015110;28;45986;-50
2022/12/01 08:04:05;;;;;;;;;41.25;35.75;;;;;-146.44;100.00;58906.56;5016033;28;45441;-49
2022/12/01 08:06:31;;;;;;;;;43.50;37.25;;;;;-146.44;100.00;58906.56;5016194;28;45869;-51
2022/12/01 08:08:56;;;;;;;;;42.00;36.75;;;;;-146.44;100.00;58906.56;5015877;28;45649;-52
2022/12/01 08:11:24;;;;;;;;;37.75;34.75;;;;;-146.44;100.00;58906.56;5016029;28;46146;-49
2022/12/01 08:13:52;;;;;;;;;43.75;38.00;;;;;-146.44;100.00;58906.56;5016108;28;45517;-48
2022/12/01 08:16:21;;;;;;;;;44.50;38.25;;;;;-146.44;100.00;58906.56;5015887;28;45529;-50
2022/12/01 08:18:47;;;;;;;;;47.75;37.75;;;;;-146.44;100.00;58906.56;5015941;28;45496;-50
2022/12/01 08:21:14;;;;;;;;;43.00;37.50;;;;;-146.44;100.00;58906.56;5015628;28;45467;-52
2022/12/01 08:23:41;;;;;;;;;50.25;37.00;;;;;-146.44;100.00;58906.56;5016044;28;45423;-50
2022/12/01 08:26:11;;;;;;;;;36.00;35.00;;;;;-146.44;100.00;58906.56;5015667;28;45477;-49
2022/12/01 08:28:37;;;;;;;;;38.75;33.50;;;;;-146.44;100.00;58906.56;5016327;28;45542;-53
2022/12/01 08:31:11;;;;;;;;;42.50;35.00;;;;;-146.44;100.00;58906.56;5015269;28;45898;-47
2022/12/01 08:33:37;;;;;;;;;37.50;30.25;;;;;-146.44;100.00;58906.56;5015744;28;45503;-49
2022/12/01 08:36:03;;;;;;;;;39.25;35.00;;;;;-146.44;100.00;58906.56;5015543;28;45469;-54
2022/12/01 08:38:29;;;;;;;;;33.75;32.75;;;;;-146.44;100.00;58906.56;5015827;28;45534;-50
2022/12/01 08:40:58;;;;;;;;;40.00;36.00;;;;;-146.44;100.00;58906.56;5015388;28;46288;-49
2022/12/01 08:43:24;;;;;;;;;32.50;32.25;;;;;-146.44;100.00;58906.56;5015463;28;45471;-52
2022/12/01 08:45:49;;;;;;;;;41.00;35.00;;;;;-146.44;100.00;58906.56;5015210;28;47576;-50
2022/12/01 08:48:14;;;;;;;;;36.00;33.25;;;;;-146.44;100.00;58906.56;5015031;28;45523;-52
2022/12/01 08:50:40;;;;;;;;;39.50;34.50;;;;;-146.44;100.00;58906.56;5015235;28;45523;-51
2022/12/01 08:53:05;;;;;;;;;36.75;34.25;;;;;-146.44;100.00;58906.56;5015092;28;47115;-53
2022/12/01 08:55:30;;;;;;;;;38.50;31.25;;;;;-146.44;100.00;58906.56;5015203;28;45542;-50
2022/12/01 08:57:56;;;;;;;;;40.25;37.25;;;;;-146.44;100.00;58906.56;5015455;28;45477;-51
2022/12/01 09:00:21;;;;;;;;;40.00;33.00;;;;;-146.44;100.00;58906.56;5015041;28;46391;-51
2022/12/01 09:02:46;;;;;;;;;32.00;30.00;;;;;-146.44;100.00;58906.56;5030341;28;49333;-52
2022/12/01 09:05:12;;;;;;;;;37.25;35.00;;;;;-146.44;100.00;58906.56;5015097;28;45402;-49
2022/12/01 09:07:37;;;;;;;;;31.50;29.50;;;;;-146.44;100.00;58906.56;5014898;28;45466;-53
2022/12/01 09:10:03;;;;;;;;;36.00;31.50;;;;;-146.44;100.00;58906.56;5014886;28;45977;-51
2022/12/01 09:12:29;;;;;;;;;33.00;30.00;;;;;-146.44;100.00;58906.56;5013616;28;45573;-50
2022/12/01 09:14:54;;;;;;;;;33.25;33.25;;;;;-146.44;100.00;58906.56;5014974;28;45429;-52
2022/12/01 09:17:19;;;;;;;;;32.25;30.75;;;;;-146.44;100.00;58906.56;5014987;28;45414;-52
2022/12/01 09:19:45;;;;;;;;;35.50;32.25;;;;;-146.44;100.00;58906.56;5014809;28;45449;-50
2022/12/01 09:22:10;;;;;;;;;39.50;33.75;;;;;-146.44;100.00;58906.56;5014942;28;45491;-47
2022/12/01 09:24:37;;;;;;;;;30.25;27.75;;;;;-146.44;100.00;58906.56;5014766;28;45419;-49
2022/12/01 09:27:03;;;;;;;;;27.50;27.50;;;;;-146.44;100.00;58906.56;5015124;28;45614;-51
2022/12/01 09:29:29;;;;;;;;;30.50;28.25;;;;;-146.44;100.00;58906.56;5015224;28;46263;-50
2022/12/01 09:31:56;;;;;;;;;34.00;31.50;;;;;-146.44;100.00;58906.56;5014739;28;45545;-50
2022/12/01 09:34:22;;;;;;;;;28.25;28.00;;;;;-146.44;100.00;58906.56;5014763;28;45407;-55
2022/12/01 09:36:48;;;;;;;;;29.75;29.75;;;;;-146.44;100.00;58906.56;5014839;28;45530;-53
2022/12/01 09:39:16;;;;;;;;;30.25;28.00;;;;;-146.44;100.00;58906.56;5014419;28;46205;-50
2022/12/01 09:41:46;;;;;;;;;33.50;31.75;;;;;-146.44;100.00;58906.56;5014491;28;45403;-53
2022/12/01 09:44:24;;;;;;;;;30.75;26.75;;;;;-146.44;100.00;58906.56;5014728;28;45501;-51
2022/12/01 09:46:56;;;;;;;;;30.75;25.50;;;;;-146.44;100.00;58906.56;5014476;28;45496;-53
2022/12/01 09:49:34;;;;;;;;;33.25;29.25;;;;;-146.44;100.00;58906.56;5014368;28;45463;-53
2022/12/01 09:52:00;;;;;;;;;29.25;28.75;;;;;-146.44;100.00;58906.56;5014129;28;45501;-52
2022/12/01 09:54:27;;;;;;;;;36.25;32.25;;;;;-146.44;100.00;58906.56;5014416;28;45897;-50
2022/12/01 09:56:54;;;;;;;;;30.00;29.25;;;;;-146.44;100.00;58906.56;5014431;28;45640;-52
2022/12/01 09:59:22;;;;;;;;;31.50;29.50;;;;;-146.44;100.00;58906.56;5014065;28;46507;-51
2022/12/01 10:01:53;;;;;;;;;29.50;25.50;;;;;-146.44;100.00;58906.56;5014289;28;45530;-48
2022/12/01 10:04:30;;;;;;;;;29.00;27.75;;;;;-146.44;100.00;58906.56;5014329;28;45473;-49
2022/12/01 10:07:28;;;;;;;;;24.00;21.50;;;;;-146.44;100.00;58906.56;5014338;28;45501;-51
2022/12/01 10:09:57;;;;;;;;;38.75;33.25;;;;;-146.44;100.00;58906.56;5013065;28;46136;-51
2022/12/01 10:12:28;;;;;;;;;35.50;30.00;;;;;-146.44;100.00;58906.56;5013921;28;45571;-50
2022/12/01 10:15:38;;;;;;;;;30.50;29.00;;;;;-146.44;100.00;58906.56;5014280;28;45624;-52
2022/12/01 10:18:31;;;;;;;;;35.25;31.50;;;;;-146.44;100.00;58906.56;5014065;28;45582;-50
2022/12/01 10:21:15;;;;;;;;;34.25;29.25;;;;;-146.44;100.00;58906.56;5013867;28;46284;-51
2022/12/01 10:24:05;;;;;;;;;30.75;29.25;;;;;-146.44;100.00;58906.56;5014027;28;45497;-53
2022/12/01 10:26:43;;;;;;;;;33.75;29.25;;;;;-146.44;100.00;58906.56;5013866;28;45494;-51
2022/12/01 10:29:23;;;;;;;;;30.00;27.75;;;;;-146.44;100.00;58906.56;5014649;28;45703;-52
2022/12/01 10:31:52;;;;;;;;;32.75;28.50;;;;;-146.44;100.00;58906.56;5013700;28;45641;-53
2022/12/01 10:34:22;;;;;;;;;35.00;28.00;;;;;-146.44;100.00;58906.56;5013581;28;45427;-51
2022/12/01 10:36:47;;;;;;;;;23.75;23.75;;;;;-146.44;100.00;58906.56;5013782;28;45465;-50
2022/12/01 10:39:41;;;;;;;;;31.50;28.75;;;;;-146.44;100.00;58906.56;5013968;28;45612;-49
2022/12/01 10:42:13;;;;;;;;;28.50;26.75;;;;;-146.44;100.00;58906.56;5013554;28;45470;-53
2022/12/01 10:44:39;;;;;;;;;34.50;30.50;;;;;-146.44;100.00;58906.56;5013422;28;45489;-53
2022/12/01 10:47:16;;;;;;;;;28.75;27.00;;;;;-146.44;100.00;58906.56;5013832;28;45425;-51
2022/12/01 10:49:41;;;;;;;;;31.50;29.00;;;;;-146.44;100.00;58906.56;5013602;28;45496;-54
2022/12/01 10:52:27;;;;;;;;;28.75;28.75;;;;;-146.44;100.00;58906.56;5013269;28;45969;-49
2022/12/01 10:54:52;;;;;;;;;28.50;27.00;;;;;-146.44;100.00;58906.56;5013485;28;45986;-51
2022/12/01 10:57:17;;;;;;;;;33.25;29.25;;;;;-146.44;100.00;58906.56;5013346;28;45461;-53
2022/12/01 10:59:50;;;;;;;;;29.00;29.00;;;;;-146.44;100.00;58906.56;5013600;28;45424;-49
2022/12/01 11:02:20;;;;;;;;;33.25;27.50;;;;;-146.44;100.00;58906.56;5013467;28;46401;-52
2022/12/01 11:04:51;;;;;;;;;35.75;32.25;;;;;-146.44;100.00;58906.56;5013392;28;45668;-52